createdAt,value
2022-10-05T00:02:15.106Z,10.63
2022-10-05T00:04:41.769Z,10.55
2022-10-05T00:07:14.083Z,10.64
2022-10-05T00:09:41.167Z,10.51
2022-10-05T00:12:15.073Z,10.26
2022-10-05T00:14:42.071Z,10.32
2022-10-05T00:17:15.244Z,10.36
2022-10-05T00:19:43.018Z,10.59
2022-10-05T00:22:14.267Z,10.45
2022-10-05T00:24:40.955Z,10.39
2022-10-05T00:27:15.214Z,10.40
2022-10-05T00:29:41.827Z,10.39
2022-10-05T00:32:09.196Z,10.23
2022-10-05T00:34:37.645Z,10.04
2022-10-05T00:37:04.777Z,9.97
2022-10-05T00:39:32.013Z,10.11
2022-10-05T00:42:15.606Z,10.16
2022-10-05T00:44:45.859Z,10.09
2022-10-05T00:47:27.601Z,10.16
2022-10-05T00:50:20.968Z,10.04
2022-10-05T00:52:54.714Z,9.87
2022-10-05T00:55:32.062Z,9.47
2022-10-05T00:58:08.074Z,10.08
2022-10-05T01:00:45.433Z,10.04
2022-10-05T01:03:18.797Z,9.79
2022-10-05T01:06:00.696Z,9.76
2022-10-05T01:08:39.702Z,9.93
2022-10-05T01:11:13.547Z,10.04
2022-10-05T01:13:49.640Z,9.74
2022-10-05T01:16:24.507Z,9.36
2022-10-05T01:18:59.046Z,9.61
2022-10-05T01:21:28.623Z,9.53
2022-10-05T01:24:19.006Z,9.69
2022-10-05T01:27:21.127Z,9.45
2022-10-05T01:29:54.757Z,9.36
2022-10-05T01:32:28.955Z,9.63
2022-10-05T01:35:06.005Z,9.55
2022-10-05T01:37:41.992Z,9.41
2022-10-05T01:40:17.539Z,9.23
2022-10-05T01:42:58.399Z,9.39
2022-10-05T01:45:35.242Z,9.63
2022-10-05T01:48:08.470Z,9.54
2022-10-05T01:50:47.381Z,9.42
2022-10-05T01:53:27.763Z,9.05
2022-10-05T01:56:01.771Z,9.43
2022-10-05T01:58:36.916Z,9.53
2022-10-05T02:01:12.490Z,9.59
2022-10-05T02:03:44.834Z,9.84
2022-10-05T02:06:15.213Z,9.76
2022-10-05T02:08:46.773Z,9.74
2022-10-05T02:11:14.628Z,9.73
2022-10-05T02:13:44.418Z,9.65
2022-10-05T02:16:17.024Z,9.44
2022-10-05T02:18:50.324Z,9.41
2022-10-05T02:21:18.337Z,9.42
2022-10-05T02:23:47.078Z,9.61
2022-10-05T02:26:13.781Z,9.72
2022-10-05T02:28:46.354Z,9.72
2022-10-05T02:31:17.885Z,10.57
2022-10-05T02:33:44.514Z,10.20
2022-10-05T02:36:15.209Z,10.16
2022-10-05T02:38:55.567Z,10.04
2022-10-05T02:41:33.396Z,10.28
2022-10-05T02:44:10.667Z,9.73
2022-10-05T02:46:47.293Z,9.62
2022-10-05T02:49:23.485Z,9.53
2022-10-05T02:51:58.051Z,9.34
2022-10-05T02:54:34.349Z,9.18
2022-10-05T02:57:04.151Z,9.18
2022-10-05T02:59:35.878Z,9.16
2022-10-05T03:02:10.014Z,9.11
2022-10-05T03:04:39.486Z,8.89
2022-10-05T03:07:11.528Z,8.94
2022-10-05T03:09:42.107Z,8.90
2022-10-05T03:12:13.255Z,8.92
2022-10-05T03:14:44.694Z,8.71
2022-10-05T03:17:14.160Z,8.79
2022-10-05T03:19:49.448Z,8.74
2022-10-05T03:22:23.568Z,8.85
2022-10-05T03:25:03.876Z,8.82
2022-10-05T03:27:34.818Z,8.90
2022-10-05T03:30:04.227Z,9.25
2022-10-05T03:32:34.782Z,8.94
2022-10-05T03:35:06.360Z,8.92
2022-10-05T03:37:36.712Z,8.94
2022-10-05T03:40:07.919Z,9.35
2022-10-05T03:42:38.604Z,9.34
2022-10-05T03:45:18.236Z,9.09
2022-10-05T03:47:52.192Z,9.05
2022-10-05T03:50:31.664Z,8.99
2022-10-05T03:53:03.793Z,9.07
2022-10-05T03:55:36.756Z,8.87
2022-10-05T03:58:11.224Z,9.00
2022-10-05T04:00:40.913Z,8.81
2022-10-05T04:03:15.719Z,8.85
2022-10-05T04:05:47.643Z,8.99
2022-10-05T04:08:21.581Z,8.90
2022-10-05T04:10:50.740Z,8.92
2022-10-05T04:13:23.562Z,8.82
2022-10-05T04:15:57.543Z,8.51
2022-10-05T04:18:28.661Z,8.78
2022-10-05T04:20:59.873Z,8.88
2022-10-05T04:23:39.507Z,8.76
2022-10-05T04:26:11.653Z,8.94
2022-10-05T04:28:54.122Z,9.02
2022-10-05T04:31:35.581Z,9.19
2022-10-05T04:34:14.485Z,9.31
2022-10-05T04:36:48.875Z,9.49
2022-10-05T04:39:23.716Z,9.36
2022-10-05T04:42:02.810Z,9.15
2022-10-05T04:44:42.883Z,9.51
2022-10-05T04:47:28.985Z,9.36
2022-10-05T04:50:12.406Z,9.20
2022-10-05T04:52:47.196Z,8.98
2022-10-05T04:55:25.046Z,8.91
2022-10-05T04:58:01.402Z,9.14
2022-10-05T05:00:33.949Z,8.97
2022-10-05T05:03:23.980Z,9.02
2022-10-05T05:06:18.239Z,8.89
2022-10-05T05:09:18.712Z,8.60
2022-10-05T05:11:56.196Z,8.91
2022-10-05T05:14:39.106Z,8.35
2022-10-05T05:17:17.923Z,8.39
2022-10-05T05:19:53.566Z,8.28
2022-10-05T05:22:29.161Z,8.34
2022-10-05T05:25:16.758Z,8.73
2022-10-05T05:27:48.486Z,8.69
2022-10-05T05:30:21.953Z,8.50
2022-10-05T05:33:06.912Z,8.73
2022-10-05T05:36:13.841Z,8.68
2022-10-05T05:38:48.314Z,8.22
2022-10-05T05:41:20.243Z,8.55
2022-10-05T05:43:58.248Z,9.14
2022-10-05T05:46:58.307Z,9.08
2022-10-05T05:49:24.095Z,8.98
2022-10-05T05:51:57.607Z,8.91
2022-10-05T05:54:31.508Z,9.15
2022-10-05T05:57:06.473Z,9.23
2022-10-05T05:59:44.242Z,9.31
2022-10-05T06:02:14.913Z,9.19
2022-10-05T06:04:45.888Z,9.23
2022-10-05T06:07:18.908Z,9.15
2022-10-05T06:09:54.457Z,9.20
2022-10-05T06:12:25.047Z,9.47
2022-10-05T06:14:55.998Z,9.50
2022-10-05T06:17:26.858Z,9.75
2022-10-05T06:20:01.102Z,9.74
2022-10-05T06:22:38.754Z,9.99
2022-10-05T06:25:23.173Z,10.02
2022-10-05T06:28:03.441Z,9.96
2022-10-05T06:30:44.921Z,10.30
2022-10-05T06:33:23.931Z,10.31
2022-10-05T06:36:06.892Z,10.47
2022-10-05T06:39:15.256Z,10.72
2022-10-05T06:41:58.797Z,10.64
2022-10-05T06:44:32.615Z,10.86
2022-10-05T06:47:07.406Z,10.77
2022-10-05T06:49:43.051Z,10.82
2022-10-05T06:52:19.686Z,11.01
2022-10-05T06:54:54.759Z,11.10
2022-10-05T06:57:49.180Z,11.18
2022-10-05T07:00:21.103Z,11.23
2022-10-05T07:02:55.669Z,11.14
2022-10-05T07:05:45.215Z,11.25
2022-10-05T07:08:15.333Z,11.32
2022-10-05T07:10:54.077Z,11.56
2022-10-05T07:13:42.483Z,11.61
2022-10-05T07:16:18.559Z,11.64
2022-10-05T07:18:53.221Z,11.57
2022-10-05T07:21:28.630Z,11.60
2022-10-05T07:24:04.590Z,11.80
2022-10-05T07:26:37.486Z,11.93
2022-10-05T07:29:29.087Z,12.37
2022-10-05T07:32:03.539Z,12.37
2022-10-05T07:34:39.862Z,12.59
2022-10-05T07:37:12.394Z,12.58
2022-10-05T07:40:00.049Z,12.50
2022-10-05T07:42:48.917Z,12.72
2022-10-05T07:45:27.541Z,13.13
2022-10-05T07:47:56.246Z,13.43
2022-10-05T07:50:27.622Z,13.31
2022-10-05T07:52:57.649Z,13.16
2022-10-05T07:55:26.269Z,13.22
2022-10-05T07:58:06.155Z,13.56
2022-10-05T08:01:04.246Z,13.54
2022-10-05T08:03:42.848Z,13.49
2022-10-05T08:06:12.039Z,13.84
2022-10-05T08:08:47.949Z,13.99
2022-10-05T08:11:18.848Z,14.00
2022-10-05T08:13:51.711Z,14.09
2022-10-05T08:16:20.112Z,13.98
2022-10-05T08:18:56.196Z,13.76
2022-10-05T08:21:27.545Z,13.93
2022-10-05T08:23:57.850Z,13.91
2022-10-05T08:26:31.602Z,13.98
2022-10-05T08:29:13.658Z,13.94
2022-10-05T08:31:46.849Z,14.17
2022-10-05T08:34:22.583Z,14.24
2022-10-05T08:36:59.373Z,14.52
2022-10-05T08:39:30.565Z,14.74
2022-10-05T08:42:27.388Z,14.82
2022-10-05T08:45:26.112Z,14.97
2022-10-05T08:48:14.906Z,14.76
2022-10-05T08:51:12.496Z,15.24
2022-10-05T08:54:20.731Z,15.23
2022-10-05T08:56:59.676Z,15.26
2022-10-05T08:59:52.484Z,15.45
2022-10-05T09:02:28.317Z,15.57
2022-10-05T09:05:18.001Z,15.61
2022-10-05T09:08:03.337Z,15.78
2022-10-05T09:10:58.106Z,15.81
2022-10-05T09:14:11.063Z,15.82
2022-10-05T09:17:09.366Z,15.95
2022-10-05T09:19:59.890Z,15.98
2022-10-05T09:22:45.685Z,16.04
2022-10-05T09:25:22.781Z,16.17
2022-10-05T09:27:56.181Z,16.16
2022-10-05T09:30:27.357Z,16.37
2022-10-05T09:33:31.553Z,16.42
2022-10-05T09:36:38.046Z,16.56
2022-10-05T09:39:41.447Z,16.46
2022-10-05T09:42:43.535Z,16.73
2022-10-05T09:45:36.181Z,16.91
2022-10-05T09:48:34.570Z,16.66
2022-10-05T09:51:46.130Z,16.86
2022-10-05T09:54:54.445Z,17.05
2022-10-05T09:57:56.653Z,17.10
2022-10-05T10:00:37.139Z,17.24
2022-10-05T10:03:28.809Z,17.33
2022-10-05T10:06:06.853Z,17.28
2022-10-05T10:08:45.687Z,17.57
2022-10-05T10:11:28.968Z,17.52
2022-10-05T10:14:20.278Z,17.61
2022-10-05T10:17:00.240Z,17.68
2022-10-05T10:20:01.365Z,17.82
2022-10-05T10:23:04.557Z,18.06
2022-10-05T10:25:48.135Z,17.81
2022-10-05T10:28:34.960Z,18.12
2022-10-05T10:31:41.151Z,18.10
2022-10-05T10:34:36.904Z,18.16
2022-10-05T10:37:33.460Z,18.65
2022-10-05T10:40:20.212Z,18.76
2022-10-05T10:43:04.761Z,18.67
2022-10-05T10:45:48.110Z,18.79
2022-10-05T10:48:50.072Z,18.60
2022-10-05T10:51:24.852Z,18.76
2022-10-05T10:54:34.886Z,18.76
2022-10-05T10:57:07.019Z,19.14
2022-10-05T11:00:19.696Z,19.18
2022-10-05T11:03:15.876Z,19.13
2022-10-05T11:06:18.371Z,19.40
2022-10-05T11:09:14.950Z,19.59
2022-10-05T11:12:19.671Z,19.45
2022-10-05T11:15:09.239Z,19.70
2022-10-05T11:17:59.625Z,19.50
2022-10-05T11:20:59.833Z,19.61
2022-10-05T11:23:50.013Z,19.71
2022-10-05T11:26:42.249Z,19.71
2022-10-05T11:29:41.328Z,19.90
2022-10-05T11:32:39.196Z,20.04
2022-10-05T11:35:32.512Z,19.58
2022-10-05T11:38:15.204Z,19.55
2022-10-05T11:41:29.047Z,19.71
2022-10-05T11:44:43.229Z,19.59
2022-10-05T11:47:17.148Z,19.72
2022-10-05T11:49:52.296Z,19.90
2022-10-05T11:52:24.437Z,20.17
2022-10-05T11:55:13.321Z,19.91
2022-10-05T11:57:50.396Z,20.01
2022-10-05T12:00:28.574Z,19.86
2022-10-05T12:03:35.730Z,19.96
2022-10-05T12:06:15.775Z,20.33
2022-10-05T12:09:01.223Z,20.26
2022-10-05T12:12:02.813Z,20.18
2022-10-05T12:14:48.510Z,20.51
2022-10-05T12:17:29.126Z,20.60
2022-10-05T12:20:00.385Z,20.61
2022-10-05T12:22:40.829Z,20.65
2022-10-05T12:25:27.610Z,20.40
2022-10-05T12:28:14.721Z,20.72
2022-10-05T12:31:13.960Z,20.65
2022-10-05T12:33:50.707Z,20.35
2022-10-05T12:36:59.219Z,20.70
2022-10-05T12:39:32.357Z,20.96
2022-10-05T12:43:11.430Z,21.09
2022-10-05T12:56:44.121Z,20.84
2022-10-05T13:06:45.288Z,21.48
2022-10-05T13:09:47.317Z,21.13
2022-10-05T13:13:23.197Z,21.27
2022-10-05T13:16:11.796Z,21.38
2022-10-05T13:19:21.557Z,21.32
2022-10-05T13:23:08.467Z,21.41
2022-10-05T13:26:01.419Z,21.31
2022-10-05T13:32:12.151Z,21.51
2022-10-05T13:39:15.372Z,21.50
2022-10-05T13:44:59.447Z,21.46
2022-10-05T13:47:56.282Z,21.25
2022-10-05T13:50:33.904Z,21.42
2022-10-05T13:53:34.011Z,21.54
2022-10-05T13:56:38.827Z,21.36
2022-10-05T13:59:43.745Z,21.54
2022-10-05T14:02:52.127Z,21.23
2022-10-05T14:06:05.421Z,21.46
2022-10-05T14:12:37.010Z,21.47
2022-10-05T14:15:26.786Z,21.47
2022-10-05T14:18:04.103Z,21.47
2022-10-05T14:20:41.570Z,21.35
2022-10-05T14:23:18.479Z,21.16
2022-10-05T14:25:59.605Z,21.26
2022-10-05T14:28:30.419Z,21.29
2022-10-05T14:31:13.788Z,21.09
2022-10-05T14:33:52.011Z,20.88
2022-10-05T14:36:35.602Z,20.80
2022-10-05T14:39:02.981Z,20.99
2022-10-05T14:41:46.343Z,20.58
2022-10-05T14:44:47.298Z,20.68
2022-10-05T14:47:21.031Z,20.77
2022-10-05T14:49:52.536Z,20.56
2022-10-05T14:52:51.661Z,20.38
2022-10-05T14:55:44.184Z,20.66
2022-10-05T14:58:59.189Z,20.40
2022-10-05T15:01:34.880Z,20.56
2022-10-05T15:04:35.037Z,20.62
2022-10-05T15:07:18.655Z,20.57
2022-10-05T15:10:21.763Z,20.70
2022-10-05T15:12:50.876Z,20.66
2022-10-05T15:15:28.462Z,20.42
2022-10-05T15:18:15.101Z,20.59
2022-10-05T15:20:55.964Z,20.30
2022-10-05T15:23:36.178Z,20.55
2022-10-05T15:26:40.860Z,20.18
2022-10-05T15:29:36.966Z,20.40
2022-10-05T15:32:22.993Z,20.34
2022-10-05T15:35:11.410Z,20.14
2022-10-05T15:40:52.756Z,20.31
2022-10-05T15:43:31.440Z,19.92
2022-10-05T15:46:15.964Z,20.10
2022-10-05T15:48:52.988Z,19.85
2022-10-05T15:51:38.631Z,19.48
2022-10-05T15:54:38.434Z,19.33
2022-10-05T15:57:20.225Z,19.44
2022-10-05T16:00:11.138Z,19.23
2022-10-05T16:02:54.876Z,19.35
2022-10-05T16:05:33.784Z,19.36
2022-10-05T16:08:01.091Z,19.11
2022-10-05T16:10:39.486Z,19.10
2022-10-05T16:13:35.110Z,18.99
2022-10-05T16:16:21.452Z,18.78
2022-10-05T16:19:03.345Z,18.92
2022-10-05T16:21:40.271Z,18.80
2022-10-05T16:24:24.607Z,18.61
2022-10-05T16:29:50.780Z,18.10
2022-10-05T16:36:07.829Z,17.85
2022-10-05T16:38:58.301Z,17.84
2022-10-05T16:42:07.410Z,17.98
2022-10-05T16:45:10.410Z,17.58
2022-10-05T16:47:46.997Z,17.61
2022-10-05T16:50:40.769Z,17.69
2022-10-05T16:53:34.154Z,17.39
2022-10-05T16:56:09.206Z,17.64
2022-10-05T16:59:08.285Z,17.40
2022-10-05T17:01:57.762Z,17.08
2022-10-05T17:04:41.351Z,16.85
2022-10-05T17:07:42.126Z,17.16
2022-10-05T17:10:48.155Z,17.05
2022-10-05T17:13:39.571Z,17.00
2022-10-05T17:16:19.707Z,16.79
2022-10-05T17:19:21.124Z,16.70
2022-10-05T17:21:57.589Z,16.60
2022-10-05T17:24:37.131Z,16.75
2022-10-05T17:27:16.752Z,16.49
2022-10-05T17:29:50.707Z,16.63
2022-10-05T17:32:57.759Z,16.64
2022-10-05T17:35:58.468Z,16.48
2022-10-05T17:38:51.233Z,16.52
2022-10-05T17:41:30.099Z,16.21
2022-10-05T17:44:20.695Z,16.48
2022-10-05T17:46:49.706Z,16.20
2022-10-05T17:49:46.912Z,16.32
2022-10-05T17:52:41.557Z,15.86
2022-10-05T17:55:38.446Z,15.76
2022-10-05T17:58:57.124Z,16.15
2022-10-05T18:01:45.530Z,15.96
2022-10-05T18:04:50.259Z,16.03
2022-10-05T18:07:58.991Z,16.25
2022-10-05T18:11:14.584Z,15.84
2022-10-05T18:17:45.231Z,15.83
2022-10-05T18:20:32.817Z,15.64
2022-10-05T18:23:29.684Z,16.17
2022-10-05T18:26:16.254Z,16.00
2022-10-05T18:29:19.598Z,15.75
2022-10-05T18:31:57.170Z,15.72
2022-10-05T18:34:38.587Z,15.71
2022-10-05T18:37:28.063Z,15.72
2022-10-05T18:40:13.095Z,15.52
2022-10-05T18:42:48.471Z,15.59
2022-10-05T18:45:24.584Z,15.50
2022-10-05T18:48:06.757Z,15.65
2022-10-05T18:50:43.803Z,15.86
2022-10-05T18:53:31.624Z,15.76
2022-10-05T18:56:14.475Z,15.82
2022-10-05T18:58:56.777Z,15.72
2022-10-05T19:02:03.812Z,15.78
2022-10-05T19:04:43.647Z,15.98
2022-10-05T19:07:28.395Z,15.54
2022-10-05T19:10:08.320Z,15.68
2022-10-05T19:12:52.775Z,15.84
2022-10-05T19:15:28.342Z,15.94
2022-10-05T19:18:35.077Z,15.85
2022-10-05T19:21:16.651Z,15.84
2022-10-05T19:24:23.360Z,15.82
2022-10-05T19:27:00.887Z,15.74
2022-10-05T19:29:44.605Z,15.46
2022-10-05T19:32:23.114Z,15.66
2022-10-05T19:35:14.252Z,15.67
2022-10-05T19:37:50.507Z,15.68
2022-10-05T19:40:26.174Z,15.82
2022-10-05T19:43:17.994Z,15.71
2022-10-05T19:45:58.637Z,15.52
2022-10-05T19:48:32.138Z,15.57
2022-10-05T19:51:01.556Z,15.65
2022-10-05T19:53:36.233Z,15.40
2022-10-05T19:56:17.148Z,15.62
2022-10-05T19:58:45.827Z,15.44
2022-10-05T20:01:22.882Z,15.43
2022-10-05T20:03:53.791Z,15.36
2022-10-05T20:06:21.570Z,15.54
2022-10-05T20:08:56.685Z,15.37
2022-10-05T20:11:28.534Z,15.32
2022-10-05T20:14:19.445Z,15.36
2022-10-05T20:16:46.193Z,15.20
2022-10-05T20:19:35.160Z,15.60
2022-10-05T20:22:22.914Z,15.23
2022-10-05T20:24:51.754Z,15.33
2022-10-05T20:27:36.607Z,14.83
2022-10-05T20:30:04.015Z,15.21
2022-10-05T20:32:33.946Z,15.22
2022-10-05T20:35:01.309Z,15.14
2022-10-05T20:37:28.372Z,15.08
2022-10-05T20:39:55.381Z,15.00
2022-10-05T20:42:22.271Z,14.84
2022-10-05T20:44:55.836Z,14.80
2022-10-05T20:47:23.673Z,14.88
2022-10-05T20:49:53.666Z,14.68
2022-10-05T20:52:21.373Z,14.85
2022-10-05T20:54:48.105Z,14.50
2022-10-05T20:57:14.887Z,14.59
2022-10-05T20:59:44.775Z,14.26
2022-10-05T21:02:38.612Z,14.10
2022-10-05T21:05:09.189Z,14.29
2022-10-05T21:07:36.077Z,13.89
2022-10-05T21:10:05.803Z,14.11
2022-10-05T21:12:32.633Z,14.10
2022-10-05T21:14:59.252Z,14.01
2022-10-05T21:17:27.315Z,13.98
2022-10-05T21:19:53.996Z,14.04
2022-10-05T21:22:22.195Z,14.01
2022-10-05T21:24:48.800Z,14.13
2022-10-05T21:27:15.372Z,13.96
2022-10-05T21:29:42.068Z,13.82
2022-10-05T21:32:08.867Z,13.51
2022-10-05T21:34:38.321Z,13.69
2022-10-05T21:37:04.769Z,13.86
2022-10-05T21:39:31.412Z,13.79
2022-10-05T21:41:58.013Z,13.59
2022-10-05T21:44:24.918Z,13.42
2022-10-05T21:46:51.956Z,13.64
2022-10-05T21:49:19.834Z,13.43
2022-10-05T21:51:50.346Z,13.39
2022-10-05T21:54:21.149Z,13.27
2022-10-05T21:56:50.675Z,13.41
2022-10-05T21:59:20.124Z,13.21
2022-10-05T22:01:46.699Z,13.25
2022-10-05T22:04:13.310Z,13.03
2022-10-05T22:06:39.927Z,13.18
2022-10-05T22:09:07.911Z,13.12
2022-10-05T22:11:34.704Z,13.21
2022-10-05T22:14:01.348Z,13.22
2022-10-05T22:16:29.571Z,13.15
2022-10-05T22:18:56.219Z,13.12
2022-10-05T22:21:22.880Z,12.99
2022-10-05T22:23:49.814Z,12.98
2022-10-05T22:26:21.277Z,12.94
2022-10-05T22:28:48.106Z,12.88
2022-10-05T22:31:15.360Z,12.90
2022-10-05T22:33:42.021Z,12.87
2022-10-05T22:36:09.599Z,13.01
2022-10-05T22:38:36.454Z,12.84
2022-10-05T22:41:03.120Z,12.88
2022-10-05T22:43:31.081Z,12.94
2022-10-05T22:45:57.737Z,12.83
2022-10-05T22:48:24.451Z,12.66
2022-10-05T22:50:51.052Z,12.52
2022-10-05T22:53:17.952Z,12.53
2022-10-05T22:55:44.639Z,12.45
2022-10-05T22:58:11.228Z,12.64
2022-10-05T23:00:57.649Z,12.71
2022-10-05T23:03:25.151Z,12.63
2022-10-05T23:05:56.332Z,12.63
2022-10-05T23:08:23.011Z,12.41
2022-10-05T23:10:49.671Z,12.42
2022-10-05T23:13:16.246Z,12.41
2022-10-05T23:15:44.253Z,12.30
2022-10-05T23:18:11.674Z,12.29
2022-10-05T23:20:38.218Z,12.40
2022-10-05T23:23:04.870Z,12.32
2022-10-05T23:25:31.559Z,12.45
2022-10-05T23:27:58.186Z,12.50
2022-10-05T23:30:24.963Z,12.68
2022-10-05T23:32:53.234Z,12.75
2022-10-05T23:35:19.877Z,12.82
2022-10-05T23:37:46.504Z,12.65
2022-10-05T23:40:14.054Z,12.25
2022-10-05T23:42:41.003Z,12.17
2022-10-05T23:45:08.803Z,12.24
2022-10-05T23:47:35.786Z,12.08
2022-10-05T23:50:05.603Z,12.09
2022-10-05T23:52:32.188Z,12.04
2022-10-05T23:54:59.124Z,12.08
2022-10-05T23:57:25.784Z,11.95
2022-10-05T23:59:52.582Z,12.08
